Time,TemperatureF,DewpointF,PressureIn,WindDirection,WindDirectionDegrees,WindSpeedMPH,WindSpeedGustMPH,Humidity,HourlyPrecipIn,Conditions,Clouds,dailyrainin,SoftwareType,DateUTC
2013-09-14 00:04:00,54.8,49.1,29.84,WSW,248,0.0,-999.0,81,0.00,,,0.00,Wunderground v.1.15,2013-09-14 04:04:00,
2013-09-14 00:09:00,55.7,49.0,29.83,WNW,284,0.0,3.0,79,0.00,,,0.08,weatherlink.com 1.10,2013-09-14 04:09:00,
2013-09-14 00:14:00,54.8,49.1,29.84,WSW,248,0.0,-999.0,81,0.00,,,0.00,Wunderground v.1.15,2013-09-14 04:14:00,
2013-09-14 00:19:00,54.5,49.1,29.84,West,270,0.0,-999.0,82,0.00,,,0.00,Wunderground v.1.15,2013-09-14 04:19:00,
2013-09-14 00:24:00,55.4,50.0,29.83,WNW,282,0.0,1.0,81,0.00,,,0.08,weatherlink.com 1.10,2013-09-14 04:24:00,
2013-09-14 00:29:00,54.2,48.8,29.84,West,270,0.0,-999.0,82,0.00,,,0.00,Wunderground v.1.15,2013-09-14 04:29:00,
2013-09-14 00:34:00,54.2,48.8,29.84,West,270,0.0,-999.0,82,0.00,,,0.00,Wunderground v.1.15,2013-09-14 04:34:00,
2013-09-14 00:39:00,55.0,49.0,29.84,WSW,254,0.0,4.0,81,0.00,,,0.00,weatherlink.com 1.10,2013-09-14 04:39:00,
2013-09-14 00:44:00,54.0,48.6,29.84,West,270,0.0,-999.0,82,0.00,,,0.00,Wunderground v.1.15,2013-09-14 04:44:00,
2013-09-14 00:49:00,53.9,48.5,29.84,West,270,0.0,-999.0,82,0.00,,,0.00,Wunderground v.1.15,2013-09-14 04:49:00,
2013-09-14 00:54:00,54.6,49.0,29.84,West,269,0.0,5.0,82,0.00,,,0.00,weatherlink.com 1.10,2013-09-14 04:54:00,
2013-09-14 00:59:00,53.8,48.8,29.85,West,270,0.0,-999.0,83,0.00,,,0.00,Wunderground v.1.15,2013-09-14 04:59:00,
2013-09-14 01:04:00,53.8,48.8,29.85,West,270,0.0,-999.0,83,0.00,,,0.00,Wunderground v.1.15,2013-09-14 05:04:00,
2013-09-14 01:09:00,54.1,49.0,29.84,West,269,0.0,1.0,82,0.00,,,0.00,weatherlink.com 1.10,2013-09-14 05:09:00,
2013-09-14 01:14:00,53.6,48.6,29.84,SW,225,0.0,-999.0,83,0.00,,,0.00,Wunderground v.1.15,2013-09-14 05:14:00,
2013-09-14 01:19:00,53.5,48.5,29.85,WSW,248,0.0,-999.0,83,0.00,,,0.00,Wunderground v.1.15,2013-09-14 05:19:00,
2013-09-14 01:24:00,53.9,49.0,29.84,West,269,0.0,1.0,82,0.00,,,0.00,weatherlink.com 1.10,2013-09-14 05:24:00,
2013-09-14 01:29:00,53.4,48.4,29.85,West,270,0.0,-999.0,83,0.00,,,0.00,Wunderground v.1.15,2013-09-14 05:29:00,
2013-09-14 01:34:00,53.4,48.4,29.85,West,270,0.0,-999.0,83,0.00,,,0.00,Wunderground v.1.15,2013-09-14 05:34:00,
2013-09-14 01:39:00,53.7,49.0,29.85,SW,216,0.0,3.0,83,0.00,,,0.00,weatherlink.com 1.10,2013-09-14 05:39:00,
2013-09-14 01:44:00,53.5,48.5,29.85,West,270,1.0,-999.0,83,0.00,,,0.00,Wunderground v.1.15,2013-09-14 05:44:00,
2013-09-14 01:49:00,53.5,48.1,29.85,WSW,248,0.0,-999.0,82,0.00,,,0.00,Wunderground v.1.15,2013-09-14 05:49:00,
2013-09-14 01:54:00,53.5,49.0,29.85,West,261,0.0,3.0,83,0.00,,,0.00,weatherlink.com 1.10,2013-09-14 05:54:00,
2013-09-14 01:59:00,53.3,48.3,29.85,WSW,248,0.0,-999.0,83,0.00,,,0.00,Wunderground v.1.15,2013-09-14 05:59:00,
2013-09-14 02:04:00,53.3,48.3,29.85,WSW,248,0.0,-999.0,83,0.00,,,0.00,Wunderground v.1.15,2013-09-14 06:04:00,
2013-09-14 02:09:00,53.4,48.0,29.85,WSW,242,0.0,6.0,83,0.00,,,0.00,weatherlink.com 1.10,2013-09-14 06:09:00,
2013-09-14 02:14:00,53.3,48.3,29.86,WSW,248,0.0,-999.0,83,0.00,,,0.00,Wunderground v.1.15,2013-09-14 06:14:00,
2013-09-14 02:19:00,53.2,48.2,29.86,WSW,248,0.0,-999.0,83,0.00,,,0.00,Wunderground v.1.15,2013-09-14 06:19:00,
2013-09-14 02:24:00,53.5,48.0,29.85,West,265,0.0,7.0,82,0.00,,,0.00,weatherlink.com 1.10,2013-09-14 06:24:00,
2013-09-14 02:29:00,53.1,47.7,29.86,WNW,293,0.0,-999.0,82,0.00,,,0.00,Wunderground v.1.15,2013-09-14 06:29:00,
2013-09-14 02:34:00,53.1,47.7,29.86,WNW,293,0.0,-999.0,82,0.00,,,0.00,Wunderground v.1.15,2013-09-14 06:34:00,
2013-09-14 02:39:00,53.3,48.0,29.85,WSW,257,0.0,2.0,83,0.00,,,0.00,weatherlink.com 1.10,2013-09-14 06:39:00,
2013-09-14 02:44:00,53.0,48.0,29.86,West,270,0.0,-999.0,83,0.00,,,0.00,Wunderground v.1.15,2013-09-14 06:44:00,
2013-09-14 02:49:00,52.9,47.6,29.86,West,270,0.0,-999.0,82,0.00,,,0.00,Wunderground v.1.15,2013-09-14 06:49:00,
2013-09-14 02:54:00,53.2,48.0,29.86,WNW,298,0.0,3.0,83,0.00,,,0.00,weatherlink.com 1.10,2013-09-14 06:54:00,
2013-09-14 02:59:00,52.8,47.5,29.86,WSW,248,0.0,-999.0,82,0.00,,,0.00,Wunderground v.1.15,2013-09-14 06:59:00,
2013-09-14 03:04:00,52.8,47.5,29.86,WSW,248,0.0,-999.0,82,0.00,,,0.00,Wunderground v.1.15,2013-09-14 07:04:00,
2013-09-14 03:09:00,53.0,48.0,29.86,West,265,1.0,3.0,82,0.00,,,0.00,weatherlink.com 1.10,2013-09-14 07:09:00,
2013-09-14 03:14:00,52.6,47.6,29.87,West,270,0.0,-999.0,83,0.00,,,0.00,Wunderground v.1.15,2013-09-14 07:14:00,
2013-09-14 03:19:00,52.6,47.3,29.87,West,270,0.0,-999.0,82,0.00,,,0.00,Wunderground v.1.15,2013-09-14 07:19:00,
2013-09-14 03:24:00,52.9,48.0,29.86,West,265,0.0,3.0,82,0.00,,,0.00,weatherlink.com 1.10,2013-09-14 07:24:00,
2013-09-14 03:29:00,52.6,47.3,29.87,WNW,293,0.0,-999.0,82,0.00,,,0.00,Wunderground v.1.15,2013-09-14 07:29:00,
2013-09-14 03:39:00,52.7,47.0,29.86,West,270,0.0,6.0,82,0.00,,,0.00,weatherlink.com 1.10,2013-09-14 07:39:00,
2013-09-14 03:44:00,52.6,47.3,29.87,SSW,203,0.0,-999.0,82,0.00,,,0.00,Wunderground v.1.15,2013-09-14 07:44:00,
2013-09-14 03:49:00,52.4,47.1,29.87,WSW,248,0.0,-999.0,82,0.00,,,0.00,Wunderground v.1.15,2013-09-14 07:49:00,
2013-09-14 03:54:00,52.6,47.0,29.87,West,276,0.0,2.0,82,0.00,,,0.00,weatherlink.com 1.10,2013-09-14 07:54:00,
2013-09-14 03:59:00,52.3,47.0,29.88,N/A,-737280,0.0,-999.0,82,0.00,,,0.00,Wunderground v.1.15,2013-09-14 07:59:00,
2013-09-14 04:04:00,52.3,47.0,29.88,N/A,-737280,0.0,-999.0,82,0.00,,,0.00,Wunderground v.1.15,2013-09-14 08:04:00,
2013-09-14 04:09:00,52.6,47.0,29.87,SSW,210,0.0,4.0,82,0.00,,,0.00,weatherlink.com 1.10,2013-09-14 08:09:00,
2013-09-14 04:14:00,52.1,47.1,29.88,West,270,0.0,-999.0,83,0.00,,,0.00,Wunderground v.1.15,2013-09-14 08:14:00,
2013-09-14 04:19:00,51.9,46.9,29.88,WSW,248,0.0,-999.0,83,0.00,,,0.00,Wunderground v.1.15,2013-09-14 08:19:00,
2013-09-14 04:24:00,52.4,47.0,29.87,WSW,257,0.0,2.0,82,0.00,,,0.00,weatherlink.com 1.10,2013-09-14 08:24:00,
2013-09-14 04:29:00,51.7,46.7,29.88,WSW,248,0.0,-999.0,83,0.00,,,0.00,Wunderground v.1.15,2013-09-14 08:29:00,
2013-09-14 04:39:00,52.2,47.0,29.88,West,261,0.0,1.0,82,0.00,,,0.00,weatherlink.com 1.10,2013-09-14 08:39:00,
2013-09-14 04:49:00,51.5,46.2,29.89,West,270,0.0,-999.0,82,0.00,,,0.00,Wunderground v.1.15,2013-09-14 08:49:00,
2013-09-14 04:54:00,51.9,47.0,29.88,WSW,257,0.0,5.0,83,0.00,,,0.00,weatherlink.com 1.10,2013-09-14 08:54:00,
2013-09-14 05:04:00,51.5,46.2,29.90,West,270,0.0,-999.0,82,0.00,,,0.00,Wunderground v.1.15,2013-09-14 09:04:00,
2013-09-14 05:09:00,51.7,47.0,29.88,West,259,0.0,3.0,83,0.00,,,0.00,weatherlink.com 1.10,2013-09-14 09:09:00,
2013-09-14 05:14:00,51.4,46.1,29.90,West,270,0.0,-999.0,82,0.00,,,0.00,Wunderground v.1.15,2013-09-14 09:14:00,
2013-09-14 05:19:00,51.4,46.1,29.90,West,270,0.0,-999.0,82,0.00,,,0.00,Wunderground v.1.15,2013-09-14 09:19:00,
2013-09-14 05:24:00,51.5,46.0,29.89,West,265,1.0,5.0,82,0.00,,,0.00,weatherlink.com 1.10,2013-09-14 09:24:00,
2013-09-14 05:29:00,51.2,45.9,29.90,NW,315,1.0,-999.0,82,0.00,,,0.00,Wunderground v.1.15,2013-09-14 09:29:00,
2013-09-14 05:34:00,51.2,45.9,29.90,NW,315,1.0,-999.0,82,0.00,,,0.00,Wunderground v.1.15,2013-09-14 09:34:00,
2013-09-14 05:39:00,51.4,46.0,29.89,West,265,0.0,1.0,82,0.00,,,0.00,weatherlink.com 1.10,2013-09-14 09:39:00,
2013-09-14 05:44:00,51.2,45.9,29.91,WNW,293,0.0,-999.0,82,0.00,,,0.00,Wunderground v.1.15,2013-09-14 09:44:00,
2013-09-14 05:49:00,51.2,45.9,29.91,WNW,293,0.0,-999.0,82,0.00,,,0.00,Wunderground v.1.15,2013-09-14 09:49:00,
2013-09-14 05:54:00,51.3,46.0,29.90,West,265,0.0,3.0,82,0.00,,,0.00,weatherlink.com 1.10,2013-09-14 09:54:00,
2013-09-14 05:59:00,51.1,45.8,29.91,WNW,293,0.0,-999.0,82,0.00,,,0.00,Wunderground v.1.15,2013-09-14 09:59:00,
2013-09-14 06:04:00,51.1,45.8,29.91,WNW,293,0.0,-999.0,82,0.00,,,0.00,Wunderground v.1.15,2013-09-14 10:04:00,
2013-09-14 06:09:00,51.2,46.0,29.90,WNW,299,0.0,9.0,82,0.00,,,0.00,weatherlink.com 1.10,2013-09-14 10:09:00,
2013-09-14 06:14:00,51.0,45.7,29.92,WNW,293,0.0,-999.0,82,0.00,,,0.00,Wunderground v.1.15,2013-09-14 10:14:00,
2013-09-14 06:19:00,50.9,45.6,29.92,West,270,1.0,-999.0,82,0.00,,,0.00,Wunderground v.1.15,2013-09-14 10:19:00,
2013-09-14 06:24:00,51.2,46.0,29.91,WNW,297,0.0,2.0,82,0.00,,,0.00,weatherlink.com 1.10,2013-09-14 10:24:00,
2013-09-14 06:29:00,50.9,45.9,29.92,WSW,248,0.0,-999.0,83,0.00,,,0.00,Wunderground v.1.15,2013-09-14 10:29:00,
2013-09-14 06:34:00,50.9,45.9,29.92,WSW,248,0.0,-999.0,83,0.00,,,0.00,Wunderground v.1.15,2013-09-14 10:34:00,
2013-09-14 06:39:00,51.1,46.0,29.91,WNW,294,0.0,4.0,82,0.00,,,0.00,weatherlink.com 1.10,2013-09-14 10:39:00,
2013-09-14 06:44:00,51.0,46.0,29.93,West,270,0.0,-999.0,83,0.00,,,0.00,Wunderground v.1.15,2013-09-14 10:44:00,
2013-09-14 06:49:00,51.1,46.1,29.93,West,270,0.0,-999.0,83,0.00,,,0.00,Wunderground v.1.15,2013-09-14 10:49:00,
2013-09-14 06:54:00,50.8,46.0,29.92,West,267,0.0,5.0,83,0.00,,,0.00,weatherlink.com 1.10,2013-09-14 10:54:00,
2013-09-14 06:59:00,51.4,46.1,29.93,West,270,0.0,-999.0,82,0.00,,,0.00,Wunderground v.1.15,2013-09-14 10:59:00,
2013-09-14 07:04:00,51.4,46.1,29.93,West,270,0.0,-999.0,82,0.00,,,0.00,Wunderground v.1.15,2013-09-14 11:04:00,
2013-09-14 07:09:00,50.9,46.0,29.93,West,270,1.0,4.0,83,0.00,,,0.00,weatherlink.com 1.10,2013-09-14 11:09:00,
2013-09-14 07:14:00,51.7,46.1,29.93,WNW,293,0.0,-999.0,81,0.00,,,0.00,Wunderground v.1.15,2013-09-14 11:14:00,
2013-09-14 07:19:00,51.9,46.3,29.93,West,270,1.0,-999.0,81,0.00,,,0.00,Wunderground v.1.15,2013-09-14 11:19:00,
2013-09-14 07:24:00,51.1,46.0,29.93,West,269,0.0,3.0,83,0.00,,,0.00,weatherlink.com 1.10,2013-09-14 11:24:00,
2013-09-14 07:29:00,52.2,46.5,29.94,West,270,0.0,-999.0,81,0.00,,,0.00,Wunderground v.1.15,2013-09-14 11:29:00,
2013-09-14 07:34:00,52.2,46.5,29.94,West,270,0.0,-999.0,81,0.00,,,0.00,Wunderground v.1.15,2013-09-14 11:34:00,
2013-09-14 07:39:00,52.6,46.6,29.94,WNW,293,0.0,-999.0,80,0.00,,,0.00,Wunderground v.1.15,2013-09-14 11:39:00,
2013-09-14 07:40:00,51.5,46.0,29.93,WNW,288,0.0,3.0,81,0.00,,,0.00,weatherlink.com 1.10,2013-09-14 11:40:00,
2013-09-14 07:44:00,52.6,46.6,29.94,WNW,293,0.0,-999.0,80,0.00,,,0.00,Wunderground v.1.15,2013-09-14 11:44:00,
2013-09-14 07:49:00,53.0,46.7,29.94,NW,315,0.0,-999.0,79,0.00,,,0.00,Wunderground v.1.15,2013-09-14 11:49:00,
2013-09-14 07:54:00,53.0,46.7,29.94,NW,315,0.0,-999.0,79,0.00,,,0.00,Wunderground v.1.15,2013-09-14 11:54:00,
2013-09-14 07:55:00,51.9,46.0,29.93,West,277,1.0,6.0,81,0.00,,,0.00,weatherlink.com 1.10,2013-09-14 11:55:00,
2013-09-14 07:59:00,53.4,47.0,29.94,WSW,248,0.0,-999.0,79,0.00,,,0.00,Wunderground v.1.15,2013-09-14 11:59:00,
2013-09-14 08:04:00,53.4,47.0,29.94,WSW,248,0.0,-999.0,79,0.00,,,0.00,Wunderground v.1.15,2013-09-14 12:04:00,
2013-09-14 08:09:00,53.7,46.7,29.94,WSW,248,0.0,-999.0,77,0.00,,,0.00,Wunderground v.1.15,2013-09-14 12:09:00,
2013-09-14 08:10:00,52.3,46.0,29.94,WNW,288,0.0,5.0,80,0.00,,,0.00,weatherlink.com 1.10,2013-09-14 12:10:00,
2013-09-14 08:14:00,53.7,46.7,29.94,WSW,248,0.0,-999.0,77,0.00,,,0.00,Wunderground v.1.15,2013-09-14 12:14:00,
2013-09-14 08:19:00,54.1,46.7,29.94,West,270,0.0,-999.0,76,0.00,,,0.00,Wunderground v.1.15,2013-09-14 12:19:00,
2013-09-14 08:24:00,54.1,46.7,29.94,West,270,0.0,-999.0,76,0.00,,,0.00,Wunderground v.1.15,2013-09-14 12:24:00,
2013-09-14 08:25:00,53.0,47.0,29.94,WSW,248,0.0,4.0,79,0.00,,,0.00,weatherlink.com 1.10,2013-09-14 12:25:00,
2013-09-14 08:29:00,54.4,47.0,29.95,West,270,1.0,-999.0,76,0.00,,,0.00,Wunderground v.1.15,2013-09-14 12:29:00,
2013-09-14 08:34:00,54.4,47.0,29.95,West,270,1.0,-999.0,76,0.00,,,0.00,Wunderground v.1.15,2013-09-14 12:34:00,
2013-09-14 08:39:00,54.7,47.3,29.95,WSW,248,1.0,-999.0,76,0.00,,,0.00,Wunderground v.1.15,2013-09-14 12:39:00,
2013-09-14 08:40:00,53.5,47.0,29.94,WSW,249,0.0,6.0,78,0.00,,,0.00,weatherlink.com 1.10,2013-09-14 12:40:00,
2013-09-14 08:44:00,54.7,47.3,29.95,WSW,248,1.0,-999.0,76,0.00,,,0.00,Wunderground v.1.15,2013-09-14 12:44:00,
2013-09-14 08:49:00,55.2,47.8,29.96,West,270,0.0,-999.0,76,0.00,,,0.00,Wunderground v.1.15,2013-09-14 12:49:00,
2013-09-14 08:54:00,55.2,47.8,29.96,West,270,0.0,-999.0,76,0.00,,,0.00,Wunderground v.1.15,2013-09-14 12:54:00,
2013-09-14 08:55:00,54.1,47.0,29.94,WNW,286,0.0,4.0,77,0.00,,,0.00,weatherlink.com 1.10,2013-09-14 12:55:00,
2013-09-14 08:59:00,55.6,47.8,29.96,NNW,338,1.0,-999.0,75,0.00,,,0.00,Wunderground v.1.15,2013-09-14 12:59:00,
2013-09-14 09:04:00,55.6,47.8,29.96,NNW,338,1.0,-999.0,75,0.00,,,0.00,Wunderground v.1.15,2013-09-14 13:04:00,
2013-09-14 09:09:00,56.0,48.2,29.96,NNE,23,0.0,-999.0,75,0.00,,,0.00,Wunderground v.1.15,2013-09-14 13:09:00,
2013-09-14 09:10:00,54.5,47.0,29.95,WNW,292,0.0,3.0,76,0.00,,,0.00,weatherlink.com 1.10,2013-09-14 13:10:00,
2013-09-14 09:14:00,56.0,48.2,29.96,NNE,23,0.0,-999.0,75,0.00,,,0.00,Wunderground v.1.15,2013-09-14 13:14:00,
2013-09-14 09:19:00,56.4,48.2,29.96,West,270,1.0,-999.0,74,0.00,,,0.00,Wunderground v.1.15,2013-09-14 13:19:00,
2013-09-14 09:24:00,56.4,48.2,29.96,West,270,1.0,-999.0,74,0.00,,,0.00,Wunderground v.1.15,2013-09-14 13:24:00,
2013-09-14 09:25:00,55.1,48.0,29.96,West,266,0.0,9.0,76,0.00,,,0.00,weatherlink.com 1.10,2013-09-14 13:25:00,
2013-09-14 09:29:00,56.8,48.6,29.96,West,270,1.0,-999.0,74,0.00,,,0.00,Wunderground v.1.15,2013-09-14 13:29:00,
2013-09-14 09:34:00,56.8,48.6,29.96,West,270,1.0,-999.0,74,0.00,,,0.00,Wunderground v.1.15,2013-09-14 13:34:00,
2013-09-14 09:39:00,57.4,48.4,29.96,West,270,1.0,-999.0,72,0.00,,,0.00,Wunderground v.1.15,2013-09-14 13:39:00,
2013-09-14 09:40:00,55.7,48.0,29.96,North,11,1.0,6.0,75,0.00,,,0.00,weatherlink.com 1.10,2013-09-14 13:40:00,
2013-09-14 09:44:00,57.4,48.4,29.96,West,270,1.0,-999.0,72,0.00,,,0.00,Wunderground v.1.15,2013-09-14 13:44:00,
2013-09-14 09:49:00,57.9,48.9,29.96,WNW,293,1.0,-999.0,72,0.00,,,0.00,Wunderground v.1.15,2013-09-14 13:49:00,
2013-09-14 09:54:00,57.9,48.9,29.96,WNW,293,1.0,-999.0,72,0.00,,,0.00,Wunderground v.1.15,2013-09-14 13:54:00,
2013-09-14 09:55:00,56.4,48.0,29.96,West,277,0.0,8.0,74,0.00,,,0.00,weatherlink.com 1.10,2013-09-14 13:55:00,
2013-09-14 09:59:00,58.3,48.9,29.96,NW,315,0.0,-999.0,71,0.00,,,0.00,Wunderground v.1.15,2013-09-14 13:59:00,
2013-09-14 10:04:00,58.3,48.9,29.96,NW,315,0.0,-999.0,71,0.00,,,0.00,Wunderground v.1.15,2013-09-14 14:04:00,
2013-09-14 10:09:00,58.6,48.8,29.96,NNE,23,1.0,-999.0,70,0.00,,,0.00,Wunderground v.1.15,2013-09-14 14:09:00,
2013-09-14 10:10:00,57.1,49.0,29.96,SW,228,0.0,8.0,73,0.00,,,0.00,weatherlink.com 1.10,2013-09-14 14:10:00,
2013-09-14 10:14:00,58.6,48.8,29.96,NNE,23,1.0,-999.0,70,0.00,,,0.00,Wunderground v.1.15,2013-09-14 14:14:00,
2013-09-14 10:19:00,59.1,48.9,29.96,North,0,1.0,-999.0,69,0.00,,,0.00,Wunderground v.1.15,2013-09-14 14:19:00,
2013-09-14 10:24:00,59.1,48.9,29.96,North,0,1.0,-999.0,69,0.00,,,0.00,Wunderground v.1.15,2013-09-14 14:24:00,
2013-09-14 10:25:00,57.8,49.0,29.96,WNW,300,4.0,9.0,72,0.00,,,0.00,weatherlink.com 1.10,2013-09-14 14:25:00,
2013-09-14 10:29:00,59.4,49.2,29.96,WSW,248,1.0,-999.0,69,0.00,,,0.00,Wunderground v.1.15,2013-09-14 14:29:00,
2013-09-14 10:34:00,59.4,49.2,29.96,WSW,248,1.0,-999.0,69,0.00,,,0.00,Wunderground v.1.15,2013-09-14 14:34:00,
2013-09-14 10:39:00,59.3,49.1,29.96,NW,315,1.0,-999.0,69,0.00,,,0.00,Wunderground v.1.15,2013-09-14 14:39:00,
2013-09-14 10:40:00,58.4,48.0,29.96,NNE,17,0.0,6.0,69,0.00,,,0.00,weatherlink.com 1.10,2013-09-14 14:40:00,
2013-09-14 10:44:00,59.3,49.1,29.96,NW,315,1.0,-999.0,69,0.00,,,0.00,Wunderground v.1.15,2013-09-14 14:44:00,
2013-09-14 10:49:00,59.6,49.4,29.96,NW,315,0.0,-999.0,69,0.00,,,0.00,Wunderground v.1.15,2013-09-14 14:49:00,
2013-09-14 10:54:00,59.6,49.4,29.96,NW,315,0.0,-999.0,69,0.00,,,0.00,Wunderground v.1.15,2013-09-14 14:54:00,
2013-09-14 10:55:00,59.1,49.0,29.96,North,5,0.0,5.0,69,0.00,,,0.00,weatherlink.com 1.10,2013-09-14 14:55:00,
2013-09-14 10:59:00,60.0,49.4,29.96,NW,315,0.0,-999.0,68,0.00,,,0.00,Wunderground v.1.15,2013-09-14 14:59:00,
2013-09-14 11:04:00,60.0,49.4,29.96,NW,315,0.0,-999.0,68,0.00,,,0.00,Wunderground v.1.15,2013-09-14 15:04:00,
2013-09-14 11:09:00,60.2,49.6,29.97,WNW,293,0.0,-999.0,68,0.00,,,0.00,Wunderground v.1.15,2013-09-14 15:09:00,
2013-09-14 11:10:00,59.4,49.0,29.96,NW,315,4.0,8.0,69,0.00,,,0.00,weatherlink.com 1.10,2013-09-14 15:10:00,
2013-09-14 11:14:00,60.2,49.6,29.97,WNW,293,0.0,-999.0,68,0.00,,,0.00,Wunderground v.1.15,2013-09-14 15:14:00,
2013-09-14 11:19:00,60.4,49.8,29.97,West,270,1.0,-999.0,68,0.00,,,0.00,Wunderground v.1.15,2013-09-14 15:19:00,
2013-09-14 11:24:00,60.4,49.8,29.97,West,270,1.0,-999.0,68,0.00,,,0.00,Wunderground v.1.15,2013-09-14 15:24:00,
2013-09-14 11:25:00,59.6,49.0,29.96,NW,307,0.0,4.0,69,0.00,,,0.00,weatherlink.com 1.10,2013-09-14 15:25:00,
2013-09-14 11:29:00,60.8,49.8,29.97,WSW,248,0.0,-999.0,67,0.00,,,0.00,Wunderground v.1.15,2013-09-14 15:29:00,
2013-09-14 11:34:00,60.8,49.8,29.97,WSW,248,0.0,-999.0,67,0.00,,,0.00,Wunderground v.1.15,2013-09-14 15:34:00,
2013-09-14 11:39:00,61.2,49.7,29.97,West,270,1.0,-999.0,66,0.00,,,0.00,Wunderground v.1.15,2013-09-14 15:39:00,
2013-09-14 11:40:00,60.2,50.0,29.96,WNW,296,0.0,3.0,68,0.00,,,0.00,weatherlink.com 1.10,2013-09-14 15:40:00,
2013-09-14 11:44:00,61.2,49.7,29.97,West,270,1.0,-999.0,66,0.00,,,0.00,Wunderground v.1.15,2013-09-14 15:44:00,
2013-09-14 11:49:00,61.1,49.7,29.98,West,270,2.0,-999.0,66,0.00,,,0.00,Wunderground v.1.15,2013-09-14 15:49:00,
2013-09-14 11:54:00,61.1,49.7,29.98,West,270,2.0,-999.0,66,0.00,,,0.00,Wunderground v.1.15,2013-09-14 15:54:00,
2013-09-14 11:55:00,60.4,49.0,29.97,NNE,15,0.0,5.0,67,0.00,,,0.00,weatherlink.com 1.10,2013-09-14 15:55:00,
2013-09-14 11:59:00,61.4,49.5,29.97,West,270,1.0,-999.0,65,0.00,,,0.00,Wunderground v.1.15,2013-09-14 15:59:00,
2013-09-14 12:04:00,61.4,49.5,29.97,West,270,1.0,-999.0,65,0.00,,,0.00,Wunderground v.1.15,2013-09-14 16:04:00,
2013-09-14 12:09:00,61.4,49.5,29.97,WNW,293,1.0,-999.0,65,0.00,,,0.00,Wunderground v.1.15,2013-09-14 16:09:00,
2013-09-14 12:10:00,60.9,49.0,29.97,West,267,3.0,8.0,66,0.00,,,0.00,weatherlink.com 1.10,2013-09-14 16:10:00,
2013-09-14 12:14:00,61.4,49.5,29.97,WNW,293,1.0,-999.0,65,0.00,,,0.00,Wunderground v.1.15,2013-09-14 16:14:00,
2013-09-14 12:19:00,61.6,49.7,29.97,NNE,23,1.0,-999.0,65,0.00,,,0.00,Wunderground v.1.15,2013-09-14 16:19:00,
2013-09-14 12:25:00,61.1,50.0,29.98,West,277,0.0,13.0,66,0.00,,,0.00,weatherlink.com 1.10,2013-09-14 16:25:00,
2013-09-14 12:40:00,61.3,49.0,29.98,NNW,338,1.0,10.0,65,0.00,,,0.00,weatherlink.com 1.10,2013-09-14 16:40:00,
2013-09-14 12:55:00,61.6,50.0,29.97,WSW,250,1.0,10.0,66,0.00,,,0.00,weatherlink.com 1.10,2013-09-14 16:55:00,
2013-09-14 13:10:00,61.8,49.9,29.98,West,267,1.0,1.0,65,0.00,,,0.00,Wunderground v.1.15,2013-09-14 17:10:00,
2013-09-14 13:20:00,61.8,50.7,29.97,West,279,1.0,1.0,67,0.00,,,0.00,Wunderground v.1.15,2013-09-14 17:20:00,
2013-09-14 13:26:00,62.0,51.0,29.97,West,273,0.0,7.0,67,0.00,,,0.00,weatherlink.com 1.10,2013-09-14 17:26:00,
2013-09-14 13:40:00,62.5,51.0,29.97,SW,233,0.0,10.0,66,0.00,,,0.00,Wunderground v.1.15,2013-09-14 17:40:00,
2013-09-14 13:50:00,62.7,50.8,29.97,West,280,1.0,10.0,65,0.00,,,0.00,Wunderground v.1.15,2013-09-14 17:50:00,
2013-09-14 13:56:00,62.8,50.0,29.97,NW,317,3.0,7.0,63,0.00,,,0.00,weatherlink.com 1.10,2013-09-14 17:56:00,
2013-09-14 14:10:00,62.4,50.9,29.97,WSW,244,1.0,4.0,66,0.00,,,0.00,Wunderground v.1.15,2013-09-14 18:10:00,
2013-09-14 14:20:00,62.6,50.7,29.97,WNW,287,1.0,2.0,65,0.00,,,0.00,Wunderground v.1.15,2013-09-14 18:20:00,
2013-09-14 14:26:00,62.8,51.0,29.97,West,276,0.0,5.0,65,0.00,,,0.00,weatherlink.com 1.10,2013-09-14 18:26:00,
2013-09-14 14:40:00,62.5,50.6,29.97,WSW,255,1.0,1.0,65,0.00,,,0.00,Wunderground v.1.15,2013-09-14 18:40:00,
2013-09-14 14:50:00,63.8,51.0,29.97,WNW,302,1.0,7.0,63,0.00,,,0.00,Wunderground v.1.15,2013-09-14 18:50:00,
2013-09-14 14:57:00,63.9,50.0,29.97,WSW,255,0.0,7.0,62,0.00,,,0.00,weatherlink.com 1.10,2013-09-14 18:57:00,
2013-09-14 15:10:00,63.3,50.1,29.98,WSW,237,3.0,3.0,62,0.00,,,0.00,Wunderground v.1.15,2013-09-14 19:10:00,
2013-09-14 15:20:00,64.1,50.4,29.98,WSW,252,0.0,0.0,61,0.00,,,0.00,Wunderground v.1.15,2013-09-14 19:20:00,
2013-09-14 15:27:00,63.7,50.0,29.98,West,275,0.0,10.0,62,0.00,,,0.00,weatherlink.com 1.10,2013-09-14 19:27:00,
2013-09-14 15:40:00,63.8,50.5,29.98,West,259,0.0,7.0,62,0.00,,,0.00,Wunderground v.1.15,2013-09-14 19:40:00,
2013-09-14 15:50:00,63.3,50.1,29.98,NW,312,0.0,7.0,62,0.00,,,0.00,Wunderground v.1.15,2013-09-14 19:50:00,
2013-09-14 15:56:00,63.3,50.0,29.98,SSW,209,0.0,6.0,63,0.00,,,0.00,weatherlink.com 1.10,2013-09-14 19:56:00,
2013-09-14 16:10:00,63.3,50.5,29.99,West,281,1.0,1.0,63,0.00,,,0.00,Wunderground v.1.15,2013-09-14 20:10:00,
2013-09-14 16:20:00,62.3,50.4,29.99,West,271,1.0,1.0,65,0.00,,,0.00,Wunderground v.1.15,2013-09-14 20:20:00,
2013-09-14 16:28:00,61.9,50.0,29.99,West,264,0.0,5.0,66,0.00,,,0.00,weatherlink.com 1.10,2013-09-14 20:28:00,
2013-09-14 16:40:00,61.8,50.7,30.00,WSW,240,1.0,1.0,67,0.00,,,0.00,Wunderground v.1.15,2013-09-14 20:40:00,
2013-09-14 16:50:00,62.7,50.3,29.99,NW,313,1.0,1.0,64,0.00,,,0.00,Wunderground v.1.15,2013-09-14 20:50:00,
2013-09-14 16:57:00,63.6,51.0,29.99,West,263,1.0,7.0,64,0.00,,,0.00,weatherlink.com 1.10,2013-09-14 20:57:00,
2013-09-14 17:10:00,63.4,50.1,30.00,WSW,248,1.0,1.0,62,0.00,,,0.00,Wunderground v.1.15,2013-09-14 21:10:00,
2013-09-14 17:20:00,62.8,50.0,30.00,NW,305,2.0,2.0,63,0.00,,,0.00,Wunderground v.1.15,2013-09-14 21:20:00,
2013-09-14 17:28:00,62.4,49.0,30.01,NW,322,0.0,9.0,63,0.00,,,0.00,weatherlink.com 1.10,2013-09-14 21:28:00,
2013-09-14 17:40:00,62.2,49.9,30.02,WSW,254,1.0,1.0,64,0.00,,,0.00,Wunderground v.1.15,2013-09-14 21:40:00,
2013-09-14 17:50:00,61.6,49.3,30.02,SW,214,2.0,7.0,64,0.00,,,0.00,Wunderground v.1.15,2013-09-14 21:50:00,
2013-09-14 17:58:00,60.9,49.0,30.02,WSW,252,1.0,10.0,66,0.00,,,0.00,weatherlink.com 1.10,2013-09-14 21:58:00,
2013-09-14 18:10:00,60.2,49.2,30.02,WNW,298,1.0,1.0,67,0.00,,,0.00,Wunderground v.1.15,2013-09-14 22:10:00,
2013-09-14 18:20:00,59.7,49.1,30.02,WSW,247,1.0,1.0,68,0.00,,,0.00,Wunderground v.1.15,2013-09-14 22:20:00,
2013-09-14 18:28:00,59.4,49.0,30.03,SSW,210,0.0,6.0,69,0.00,,,0.00,weatherlink.com 1.10,2013-09-14 22:28:00,
2013-09-14 18:40:00,59.0,48.8,30.03,SW,221,0.0,10.0,69,0.00,,,0.00,Wunderground v.1.15,2013-09-14 22:40:00,
2013-09-14 18:50:00,58.6,48.5,30.03,West,273,0.0,10.0,69,0.00,,,0.00,Wunderground v.1.15,2013-09-14 22:50:00,
2013-09-14 18:58:00,58.4,49.0,30.04,WNW,300,0.0,7.0,70,0.00,,,0.00,weatherlink.com 1.10,2013-09-14 22:58:00,
2013-09-14 19:10:00,57.8,48.8,30.04,West,275,0.0,0.0,72,0.00,,,0.00,Wunderground v.1.15,2013-09-14 23:10:00,
2013-09-14 19:20:00,57.2,48.3,30.04,WSW,255,0.0,0.0,72,0.00,,,0.00,Wunderground v.1.15,2013-09-14 23:20:00,
2013-09-14 19:28:00,56.9,48.0,30.04,WSW,255,0.0,3.0,73,0.00,,,0.00,weatherlink.com 1.10,2013-09-14 23:28:00,
2013-09-14 19:40:00,56.4,48.2,30.05,West,261,0.0,7.0,74,0.00,,,0.00,Wunderground v.1.15,2013-09-14 23:40:00,
2013-09-14 19:50:00,56.0,48.2,30.06,West,265,0.0,7.0,75,0.00,,,0.00,Wunderground v.1.15,2013-09-14 23:50:00,
2013-09-14 19:58:00,55.9,48.0,30.06,West,265,0.0,5.0,75,0.00,,,0.00,weatherlink.com 1.10,2013-09-14 23:58:00,
2013-09-14 20:10:00,55.7,47.9,30.06,West,267,0.0,0.0,75,0.00,,,0.00,Wunderground v.1.15,2013-09-15 00:10:00,
2013-09-14 20:20:00,55.5,48.1,30.07,West,265,0.0,0.0,76,0.00,,,0.00,Wunderground v.1.15,2013-09-15 00:20:00,
2013-09-14 20:30:00,55.2,48.0,30.07,West,265,0.0,2.0,76,0.00,,,0.00,weatherlink.com 1.10,2013-09-15 00:30:00,
2013-09-14 20:40:00,54.9,47.8,30.07,West,265,0.0,5.0,77,0.00,,,0.00,Wunderground v.1.15,2013-09-15 00:40:00,
2013-09-14 20:50:00,54.6,47.9,30.08,West,265,0.0,5.0,78,0.00,,,0.00,Wunderground v.1.15,2013-09-15 00:50:00,
2013-09-14 20:59:00,54.3,48.0,30.08,West,265,0.0,5.0,78,0.00,,,0.00,weatherlink.com 1.10,2013-09-15 00:59:00,
2013-09-14 21:10:00,54.1,47.4,30.08,West,267,0.0,0.0,78,0.00,,,0.00,Wunderground v.1.15,2013-09-15 01:10:00,
2013-09-14 21:15:00,54.2,47.0,30.09,West,265,0.0,5.0,78,0.00,,,0.00,weatherlink.com 1.10,2013-09-15 01:15:00,
2013-09-14 21:29:00,54.2,47.0,30.09,West,265,0.0,1.0,78,0.00,,,0.00,weatherlink.com 1.10,2013-09-15 01:29:00,
2013-09-14 21:40:00,54.2,47.5,30.09,West,265,0.0,5.0,78,0.00,,,0.00,Wunderground v.1.15,2013-09-15 01:40:00,
2013-09-14 21:45:00,54.2,47.0,30.09,West,265,0.0,1.0,78,0.00,,,0.00,weatherlink.com 1.10,2013-09-15 01:45:00,
2013-09-14 22:00:00,54.1,47.4,30.09,West,265,0.0,0.0,78,0.00,,,0.00,Wunderground v.1.15,2013-09-15 02:00:00,
2013-09-14 22:10:00,54.0,47.6,30.09,West,263,0.0,0.0,79,0.00,,,0.00,Wunderground v.1.15,2013-09-15 02:10:00,
2013-09-14 22:15:00,53.9,48.0,30.09,West,263,1.0,1.0,80,0.00,,,0.00,weatherlink.com 1.10,2013-09-15 02:15:00,
2013-09-14 22:29:00,53.6,48.0,30.09,West,263,0.0,1.0,80,0.00,,,0.00,weatherlink.com 1.10,2013-09-15 02:29:00,
2013-09-14 22:40:00,53.3,47.3,30.10,West,263,0.0,4.0,80,0.00,,,0.00,Wunderground v.1.15,2013-09-15 02:40:00,
2013-09-14 22:45:00,53.2,48.0,30.10,West,263,0.0,1.0,81,0.00,,,0.00,weatherlink.com 1.10,2013-09-15 02:45:00,
2013-09-14 22:59:00,52.8,47.0,30.10,West,263,0.0,1.0,80,0.00,,,0.00,weatherlink.com 1.10,2013-09-15 02:59:00,
2013-09-14 23:10:00,52.7,47.0,30.10,West,263,0.0,0.0,81,0.00,,,0.00,Wunderground v.1.15,2013-09-15 03:10:00,
2013-09-14 23:20:00,52.6,46.9,30.10,West,263,0.0,0.0,81,0.00,,,0.00,Wunderground v.1.15,2013-09-15 03:20:00,
2013-09-14 23:30:00,52.4,46.7,30.10,West,263,0.0,1.0,81,0.00,,,0.00,Wunderground v.1.15,2013-09-15 03:30:00,
2013-09-14 23:40:00,52.3,47.0,30.11,West,263,0.0,1.0,82,0.00,,,0.00,Wunderground v.1.15,2013-09-15 03:40:00,
2013-09-14 23:45:00,52.3,47.0,30.11,West,263,0.0,1.0,82,0.00,,,0.00,weatherlink.com 1.10,2013-09-15 03:45:00,